createdAt,value
2023-03-13T00:02:18.851Z,70.99
2023-03-13T00:04:47.672Z,70.32
2023-03-13T00:07:17.365Z,70.40
2023-03-13T00:09:46.576Z,70.44
2023-03-13T00:12:16.176Z,70.69
2023-03-13T00:14:50.476Z,71.05
2023-03-13T00:17:19.388Z,70.92
2023-03-13T00:19:47.771Z,70.65
2023-03-13T00:22:20.555Z,70.22
2023-03-13T00:24:51.368Z,70.00
2023-03-13T00:27:19.627Z,70.20
2023-03-13T00:29:50.861Z,70.05
2023-03-13T00:32:18.949Z,70.39
2023-03-13T00:34:47.175Z,70.22
2023-03-13T00:37:14.999Z,69.77
2023-03-13T00:39:46.135Z,69.95
2023-03-13T00:42:14.958Z,70.59
2023-03-13T00:44:43.201Z,70.32
2023-03-13T00:47:11.469Z,70.06
2023-03-13T00:49:39.999Z,69.98
2023-03-13T00:52:09.303Z,69.94
2023-03-13T00:54:37.260Z,69.71
2023-03-13T00:57:07.586Z,69.75
2023-03-13T00:59:36.375Z,69.74
2023-03-13T01:02:05.108Z,70.63
2023-03-13T01:04:33.141Z,70.15
2023-03-13T01:07:03.431Z,69.90
2023-03-13T01:09:32.174Z,70.33
2023-03-13T01:12:02.463Z,71.27
2023-03-13T01:14:33.159Z,71.06
2023-03-13T01:17:01.469Z,70.66
2023-03-13T01:19:29.517Z,70.45
2023-03-13T01:21:59.267Z,70.04
2023-03-13T01:24:27.143Z,70.07
2023-03-13T01:26:58.799Z,70.38
2023-03-13T01:29:27.332Z,70.65
2023-03-13T01:32:03.629Z,70.39
2023-03-13T01:34:31.598Z,70.12
2023-03-13T01:37:01.851Z,70.62
2023-03-13T01:39:29.707Z,70.28
2023-03-13T01:42:00.726Z,69.78
2023-03-13T01:44:31.278Z,69.92
2023-03-13T01:47:00.870Z,70.01
2023-03-13T01:49:33.755Z,70.23
2023-03-13T01:52:05.399Z,70.59
2023-03-13T01:54:42.144Z,69.89
2023-03-13T01:57:17.788Z,69.90
2023-03-13T01:59:50.774Z,69.83
2023-03-13T02:02:23.810Z,70.21
2023-03-13T02:04:59.390Z,70.11
2023-03-13T02:07:33.711Z,71.06
2023-03-13T02:10:03.778Z,71.25
2023-03-13T02:12:35.007Z,72.13
2023-03-13T02:15:08.448Z,71.81
2023-03-13T02:17:39.859Z,72.47
2023-03-13T02:20:10.444Z,72.59
2023-03-13T02:22:46.878Z,72.46
2023-03-13T02:25:24.201Z,74.47
2023-03-13T02:27:58.826Z,75.75
2023-03-13T02:30:27.984Z,77.29
2023-03-13T02:32:57.315Z,77.32
2023-03-13T02:35:26.428Z,78.45
2023-03-13T02:38:03.393Z,78.67
2023-03-13T02:40:35.639Z,79.48
2023-03-13T02:43:12.960Z,79.55
2023-03-13T02:45:40.878Z,79.88
2023-03-13T02:48:09.336Z,78.57
2023-03-13T02:50:38.300Z,78.95
2023-03-13T02:53:08.896Z,79.17
2023-03-13T02:55:41.837Z,78.29
2023-03-13T02:58:11.240Z,78.58
2023-03-13T03:00:39.309Z,79.25
2023-03-13T03:03:13.508Z,79.63
2023-03-13T03:05:42.910Z,79.33
2023-03-13T03:08:11.037Z,79.96
2023-03-13T03:10:41.232Z,80.87
2023-03-13T03:13:09.854Z,80.40
2023-03-13T03:15:39.168Z,80.92
2023-03-13T03:18:07.354Z,81.41
2023-03-13T03:20:35.217Z,81.07
2023-03-13T03:23:03.701Z,81.11
2023-03-13T03:25:31.654Z,81.03
2023-03-13T03:28:00.822Z,80.97
2023-03-13T03:30:28.766Z,80.31
2023-03-13T03:32:58.153Z,80.69
2023-03-13T03:35:26.516Z,81.66
2023-03-13T03:37:56.852Z,82.01
2023-03-13T03:40:24.958Z,82.49
2023-03-13T03:42:52.910Z,83.16
2023-03-13T03:45:22.224Z,84.36
2023-03-13T03:47:51.581Z,84.93
2023-03-13T03:50:21.755Z,85.28
2023-03-13T03:52:51.566Z,85.83
2023-03-13T03:55:20.217Z,86.75
2023-03-13T03:57:48.352Z,86.59
2023-03-13T04:00:19.377Z,87.99
2023-03-13T04:02:47.903Z,88.04
2023-03-13T04:05:16.489Z,87.84
2023-03-13T04:07:47.246Z,88.08
2023-03-13T04:10:15.525Z,87.97
2023-03-13T04:12:46.292Z,88.00
2023-03-13T04:15:17.775Z,87.98
2023-03-13T04:17:48.673Z,88.70
2023-03-13T04:20:17.088Z,88.36
2023-03-13T04:22:46.799Z,88.79
2023-03-13T04:25:16.389Z,88.43
2023-03-13T04:27:44.592Z,88.43
2023-03-13T04:30:18.720Z,89.24
2023-03-13T04:32:46.727Z,89.26
2023-03-13T04:35:15.290Z,88.46
2023-03-13T04:37:57.228Z,88.58
2023-03-13T04:40:26.016Z,89.35
2023-03-13T04:42:55.522Z,89.04
2023-03-13T04:45:25.012Z,89.38
2023-03-13T04:47:54.736Z,89.45
2023-03-13T04:50:23.145Z,89.93
2023-03-13T04:52:52.559Z,89.59
2023-03-13T04:55:20.961Z,90.06
2023-03-13T04:57:50.674Z,89.91
2023-03-13T05:00:20.228Z,90.33
2023-03-13T05:02:56.024Z,90.25
2023-03-13T05:05:24.319Z,90.81
2023-03-13T05:07:54.357Z,90.84
2023-03-13T05:10:23.676Z,91.50
2023-03-13T05:12:51.782Z,91.26
2023-03-13T05:15:20.640Z,91.30
2023-03-13T05:17:49.442Z,91.51
2023-03-13T05:20:17.722Z,92.16
2023-03-13T05:22:46.872Z,91.87
2023-03-13T05:25:17.110Z,91.89
2023-03-13T05:27:48.501Z,92.27
2023-03-13T05:30:19.856Z,91.91
2023-03-13T05:32:49.517Z,92.18
2023-03-13T05:35:19.601Z,91.88
2023-03-13T05:37:50.084Z,92.68
2023-03-13T05:40:22.180Z,92.35
2023-03-13T05:42:51.850Z,92.71
2023-03-13T05:45:22.018Z,92.33
2023-03-13T05:47:50.390Z,92.44
2023-03-13T05:50:18.590Z,92.05
2023-03-13T05:52:48.558Z,92.79
2023-03-13T05:55:21.796Z,91.92
2023-03-13T05:57:50.225Z,91.82
2023-03-13T06:00:22.881Z,91.45
2023-03-13T06:02:51.941Z,91.99
2023-03-13T06:05:28.459Z,91.94
2023-03-13T06:07:58.772Z,92.33
2023-03-13T06:10:28.791Z,92.71
2023-03-13T06:12:58.852Z,92.42
2023-03-13T06:15:29.364Z,92.76
2023-03-13T06:18:00.092Z,92.23
2023-03-13T06:20:31.030Z,92.37
2023-03-13T06:22:59.792Z,92.71
2023-03-13T06:25:33.982Z,92.08
2023-03-13T06:28:05.462Z,92.04
2023-03-13T06:30:36.971Z,92.39
2023-03-13T06:33:14.074Z,92.44
2023-03-13T06:35:56.274Z,91.96
2023-03-13T06:38:27.487Z,92.07
2023-03-13T06:40:58.077Z,91.48
2023-03-13T06:43:26.449Z,91.25
2023-03-13T06:45:56.066Z,91.01
2023-03-13T06:48:24.893Z,91.59
2023-03-13T06:50:56.619Z,91.25
2023-03-13T06:53:24.791Z,90.90
2023-03-13T06:55:53.288Z,90.88
2023-03-13T06:58:32.024Z,90.61
2023-03-13T07:01:01.377Z,90.92
2023-03-13T07:03:30.605Z,90.25
2023-03-13T07:06:00.691Z,90.27
2023-03-13T07:08:29.663Z,89.83
2023-03-13T07:11:04.935Z,89.79
2023-03-13T07:13:41.936Z,89.56
2023-03-13T07:16:16.944Z,89.44
2023-03-13T07:18:45.770Z,89.50
2023-03-13T07:21:16.953Z,89.11
2023-03-13T07:23:45.591Z,89.45
2023-03-13T07:26:19.028Z,88.88
2023-03-13T07:28:49.408Z,88.71
2023-03-13T07:31:21.652Z,87.83
2023-03-13T07:33:59.298Z,88.02
2023-03-13T07:36:29.866Z,87.67
2023-03-13T07:39:00.169Z,87.45
2023-03-13T07:41:29.731Z,86.70
2023-03-13T07:44:00.283Z,86.91
2023-03-13T07:46:33.668Z,86.69
2023-03-13T07:49:02.520Z,86.62
2023-03-13T07:51:43.318Z,86.16
2023-03-13T07:54:13.988Z,85.61
2023-03-13T07:56:41.999Z,85.62
2023-03-13T07:59:14.272Z,84.91
2023-03-13T08:01:44.164Z,85.31
2023-03-13T08:04:16.870Z,85.40
2023-03-13T08:06:48.506Z,84.90
2023-03-13T08:09:16.735Z,85.22
2023-03-13T08:11:45.531Z,84.98
2023-03-13T08:14:19.039Z,84.70
2023-03-13T08:16:48.522Z,84.20
2023-03-13T08:19:16.945Z,84.33
2023-03-13T08:21:46.309Z,84.03
2023-03-13T08:24:14.496Z,83.84
2023-03-13T08:26:43.457Z,84.49
2023-03-13T08:29:16.835Z,83.87
2023-03-13T08:31:48.088Z,84.06
2023-03-13T08:34:18.839Z,83.19
2023-03-13T08:36:49.601Z,83.41
2023-03-13T08:39:19.524Z,82.18
2023-03-13T08:41:48.846Z,82.07
2023-03-13T08:44:21.414Z,81.27
2023-03-13T08:46:51.127Z,80.09
2023-03-13T08:49:20.077Z,79.88
2023-03-13T08:51:49.097Z,79.57
2023-03-13T08:54:18.771Z,80.29
2023-03-13T08:56:47.229Z,79.81
2023-03-13T08:59:19.883Z,80.31
2023-03-13T09:01:50.482Z,80.07
2023-03-13T09:04:21.178Z,79.36
2023-03-13T09:06:49.441Z,79.49
2023-03-13T09:09:19.611Z,79.59
2023-03-13T09:11:48.162Z,80.00
2023-03-13T09:14:20.784Z,80.23
2023-03-13T09:16:49.833Z,80.18
2023-03-13T09:19:19.139Z,78.91
2023-03-13T09:21:49.647Z,79.58
2023-03-13T09:24:21.268Z,78.21
2023-03-13T09:27:00.589Z,78.93
2023-03-13T09:29:29.710Z,78.40
2023-03-13T09:31:58.469Z,78.68
2023-03-13T09:34:37.160Z,78.87
2023-03-13T09:37:09.157Z,78.71
2023-03-13T09:39:39.988Z,78.40
2023-03-13T09:42:15.855Z,77.66
2023-03-13T09:44:57.267Z,77.29
2023-03-13T09:47:32.829Z,76.72
2023-03-13T09:50:09.348Z,77.01
2023-03-13T09:52:44.014Z,76.47
2023-03-13T09:55:20.638Z,76.64
2023-03-13T09:57:54.400Z,76.73
2023-03-13T10:00:33.408Z,76.43
2023-03-13T10:03:09.266Z,75.96
2023-03-13T10:05:50.359Z,76.04
2023-03-13T10:08:20.407Z,75.91
2023-03-13T10:10:54.468Z,76.61
2023-03-13T10:13:29.383Z,76.54
2023-03-13T10:16:02.488Z,76.08
2023-03-13T10:18:34.896Z,74.22
2023-03-13T10:21:15.597Z,74.45
2023-03-13T10:23:53.476Z,75.49
2023-03-13T10:26:26.108Z,74.85
2023-03-13T10:28:58.664Z,74.40
2023-03-13T10:31:33.749Z,73.80
2023-03-13T10:34:11.224Z,73.36
2023-03-13T10:36:58.170Z,73.72
2023-03-13T10:39:28.308Z,74.27
2023-03-13T10:42:12.332Z,74.83
2023-03-13T10:45:07.610Z,74.44
2023-03-13T10:47:40.099Z,74.75
2023-03-13T10:50:18.978Z,74.13
2023-03-13T10:52:52.314Z,74.90
2023-03-13T10:55:23.750Z,74.43
2023-03-13T10:58:00.028Z,73.71
2023-03-13T11:00:44.726Z,72.31
2023-03-13T11:03:21.793Z,73.35
2023-03-13T11:06:01.080Z,73.34
2023-03-13T11:08:38.779Z,73.94
2023-03-13T11:11:18.138Z,73.37
2023-03-13T11:13:49.214Z,73.46
2023-03-13T11:16:24.513Z,73.15
2023-03-13T11:19:18.771Z,71.81
2023-03-13T11:22:01.976Z,72.97
2023-03-13T11:24:43.981Z,72.97
2023-03-13T11:27:24.215Z,71.97
2023-03-13T11:30:03.466Z,72.48
2023-03-13T11:32:42.523Z,71.64
2023-03-13T11:35:21.276Z,70.81
2023-03-13T11:37:57.804Z,71.04
2023-03-13T11:40:37.164Z,71.02
2023-03-13T11:43:36.232Z,70.91
2023-03-13T11:46:21.254Z,70.28
2023-03-13T11:49:13.475Z,69.90
2023-03-13T11:51:55.212Z,69.20
2023-03-13T11:54:37.020Z,69.53
2023-03-13T11:57:14.471Z,70.24
2023-03-13T11:59:51.332Z,70.08
2023-03-13T12:02:25.910Z,69.86
2023-03-13T12:04:58.585Z,69.31
2023-03-13T12:07:31.147Z,69.22
2023-03-13T12:10:03.310Z,67.54
2023-03-13T12:12:47.892Z,67.77
2023-03-13T12:15:27.194Z,67.08
2023-03-13T12:18:01.235Z,67.20
2023-03-13T12:20:36.478Z,67.22
2023-03-13T12:23:18.852Z,66.60
2023-03-13T12:26:06.546Z,66.84
2023-03-13T12:28:43.047Z,67.06
2023-03-13T12:31:23.080Z,67.63
2023-03-13T12:34:01.315Z,67.70
2023-03-13T12:36:35.934Z,67.97
2023-03-13T12:39:21.815Z,68.25
2023-03-13T12:41:59.950Z,68.94
2023-03-13T12:44:30.071Z,69.84
2023-03-13T12:47:08.874Z,70.75
2023-03-13T12:50:11.880Z,71.70
2023-03-13T12:53:06.608Z,71.82
2023-03-13T12:56:07.634Z,73.49
2023-03-13T12:58:56.458Z,73.57
2023-03-13T13:01:47.043Z,74.38
2023-03-13T13:04:22.045Z,74.61
2023-03-13T13:07:14.583Z,74.40
2023-03-13T13:10:08.108Z,74.38
2023-03-13T13:12:37.274Z,74.36
2023-03-13T13:15:23.026Z,76.06
2023-03-13T13:18:01.087Z,76.81
2023-03-13T13:20:39.355Z,76.95
2023-03-13T13:23:36.912Z,75.04
2023-03-13T13:29:59.225Z,73.28
2023-03-13T13:33:03.186Z,71.96
2023-03-13T13:35:47.139Z,71.56
2023-03-13T13:38:37.301Z,70.89
2023-03-13T13:41:45.496Z,69.72
2023-03-13T13:44:34.470Z,67.38
2023-03-13T13:47:20.367Z,66.82
2023-03-13T13:49:56.158Z,66.28
2023-03-13T13:52:52.880Z,62.99
2023-03-13T13:55:47.864Z,63.12
2023-03-13T13:58:25.945Z,64.24
2023-03-13T14:00:58.599Z,65.26
2023-03-13T14:03:28.397Z,64.49
2023-03-13T14:06:03.535Z,64.71
2023-03-13T14:08:41.675Z,64.94
2023-03-13T14:11:32.716Z,64.91
2023-03-13T14:14:15.961Z,64.40
2023-03-13T14:16:50.434Z,63.68
2023-03-13T14:19:30.239Z,64.50
2023-03-13T14:22:05.711Z,65.11
2023-03-13T14:24:42.331Z,64.84
2023-03-13T14:27:19.513Z,62.81
2023-03-13T14:30:05.002Z,62.95
2023-03-13T14:32:34.409Z,62.06
2023-03-13T14:35:10.731Z,61.63
2023-03-13T14:37:45.352Z,61.11
2023-03-13T14:40:52.569Z,60.95
2023-03-13T14:43:32.588Z,60.29
2023-03-13T14:46:05.912Z,60.23
2023-03-13T14:48:45.637Z,60.11
2023-03-13T14:51:23.150Z,60.23
2023-03-13T14:54:09.628Z,60.08
2023-03-13T14:57:12.364Z,61.11
2023-03-13T14:59:47.434Z,60.95
2023-03-13T15:02:26.929Z,60.61
2023-03-13T15:05:04.159Z,60.87
2023-03-13T15:07:46.649Z,60.76
2023-03-13T15:10:27.350Z,60.80
2023-03-13T15:13:30.285Z,61.80
2023-03-13T15:16:02.351Z,61.61
2023-03-13T15:18:44.761Z,62.60
2023-03-13T15:21:42.310Z,72.82
2023-03-13T17:04:16.781Z,93.06
2023-03-13T17:06:47.962Z,93.28
2023-03-13T17:09:19.624Z,93.72
2023-03-13T17:11:48.758Z,93.96
2023-03-13T17:14:19.291Z,92.77
2023-03-13T17:16:47.613Z,93.08
2023-03-13T17:19:23.608Z,93.18
2023-03-13T17:21:53.072Z,92.56
2023-03-13T17:24:23.311Z,93.46
2023-03-13T17:26:52.727Z,92.45
2023-03-13T17:29:23.728Z,92.74
2023-03-13T17:31:54.712Z,92.38
2023-03-13T17:34:27.810Z,91.92
2023-03-13T17:36:59.625Z,90.99
2023-03-13T17:39:31.138Z,91.03
2023-03-13T17:42:01.406Z,91.33
2023-03-13T17:44:29.378Z,91.34
2023-03-13T17:46:59.334Z,91.56
2023-03-13T17:49:32.612Z,92.15
2023-03-13T17:52:00.980Z,92.58
2023-03-13T17:54:32.467Z,92.36
2023-03-13T17:57:01.997Z,92.52
2023-03-13T17:59:32.276Z,92.19
2023-03-13T18:02:03.927Z,92.52
2023-03-13T18:04:33.631Z,92.67
2023-03-13T18:07:02.119Z,92.06
2023-03-13T18:09:38.166Z,92.38
2023-03-13T18:12:07.352Z,91.94
2023-03-13T18:14:39.745Z,91.58
2023-03-13T18:17:18.975Z,91.40
2023-03-13T18:19:56.510Z,91.81
2023-03-13T18:22:31.295Z,92.77
2023-03-13T18:25:03.912Z,92.18
2023-03-13T18:27:33.601Z,93.00
2023-03-13T18:30:04.825Z,93.49
2023-03-13T18:32:34.154Z,94.30
2023-03-13T18:35:04.129Z,94.33
2023-03-13T18:37:40.097Z,94.87
2023-03-13T18:40:17.342Z,95.00
2023-03-13T18:42:48.019Z,95.55
2023-03-13T18:45:17.852Z,95.32
2023-03-13T18:47:49.429Z,95.46
2023-03-13T18:50:26.610Z,95.45
2023-03-13T18:52:56.916Z,96.65
2023-03-13T18:55:32.378Z,96.14
2023-03-13T18:58:11.186Z,96.33
2023-03-13T19:00:44.670Z,96.50
2023-03-13T19:03:16.728Z,96.55
2023-03-13T19:05:46.901Z,96.29
2023-03-13T19:08:17.724Z,95.71
2023-03-13T19:10:47.164Z,95.75
2023-03-13T19:13:16.669Z,95.68
2023-03-13T19:15:46.295Z,96.24
2023-03-13T19:18:18.577Z,96.40
2023-03-13T19:20:50.116Z,96.00
2023-03-13T19:23:24.713Z,95.59
2023-03-13T19:25:53.759Z,96.04
2023-03-13T19:28:23.500Z,95.68
2023-03-13T19:30:53.052Z,95.27
2023-03-13T19:50:53.923Z,91.99
2023-03-13T19:53:23.584Z,91.82
2023-03-13T19:55:58.834Z,92.35
2023-03-13T19:58:31.025Z,92.13
2023-03-13T20:01:16.836Z,91.94
2023-03-13T20:03:52.165Z,91.80
2023-03-13T20:06:31.681Z,92.14
2023-03-13T20:09:05.084Z,89.20
2023-03-13T20:11:35.716Z,90.13
2023-03-13T20:14:04.772Z,90.72
2023-03-13T20:16:36.948Z,90.43
2023-03-13T20:19:11.069Z,89.66
2023-03-13T20:21:43.031Z,91.02
2023-03-13T20:24:33.390Z,90.61
2023-03-13T20:27:01.829Z,91.01
2023-03-13T20:29:29.833Z,90.00
2023-03-13T20:32:01.170Z,89.24
2023-03-13T20:34:30.115Z,89.71
2023-03-13T20:37:00.039Z,89.12
2023-03-13T20:39:29.923Z,89.46
2023-03-13T20:42:02.982Z,88.87
2023-03-13T20:44:33.901Z,89.94
2023-03-13T20:47:02.704Z,89.72
2023-03-13T20:49:34.705Z,90.07
2023-03-13T20:52:04.793Z,89.59
2023-03-13T20:54:34.216Z,89.03
2023-03-13T20:57:08.155Z,88.68
2023-03-13T20:59:41.528Z,88.35
2023-03-13T21:02:18.843Z,88.86
2023-03-13T21:04:52.028Z,87.72
2023-03-13T21:07:22.699Z,88.50
2023-03-13T21:09:50.707Z,88.99
2023-03-13T21:12:38.623Z,87.83
2023-03-13T21:15:10.101Z,89.67
2023-03-13T21:17:42.107Z,88.52
2023-03-13T21:20:14.547Z,88.79
2023-03-13T21:22:45.027Z,89.24
2023-03-13T21:25:14.017Z,88.23
2023-03-13T21:27:43.905Z,88.69
2023-03-13T21:30:14.598Z,88.56
2023-03-13T21:32:42.750Z,88.39
2023-03-13T21:35:12.525Z,89.04
2023-03-13T21:37:42.072Z,87.81
2023-03-13T21:40:16.168Z,87.41
2023-03-13T21:42:45.771Z,88.18
2023-03-13T21:45:16.646Z,88.40
2023-03-13T21:47:48.485Z,88.36
2023-03-13T21:56:23.550Z,88.63
2023-03-13T21:58:56.712Z,87.67
2023-03-13T22:01:27.886Z,88.73
2023-03-13T22:03:56.181Z,87.99
2023-03-13T22:14:52.667Z,87.38
2023-03-13T22:24:13.537Z,87.97
2023-03-13T22:29:51.216Z,88.01
2023-03-13T22:32:26.051Z,88.21
2023-03-13T22:35:15.510Z,87.90
2023-03-13T22:41:00.578Z,87.93
2023-03-13T22:43:38.316Z,88.33
2023-03-13T22:52:38.314Z,88.75
2023-03-13T22:55:20.109Z,89.19
2023-03-13T22:57:59.938Z,89.93
2023-03-13T23:00:33.971Z,88.88
2023-03-13T23:03:03.899Z,88.98
2023-03-13T23:06:02.730Z,89.58
2023-03-13T23:08:35.762Z,89.38
2023-03-13T23:11:08.459Z,88.96
2023-03-13T23:13:42.565Z,90.34
2023-03-13T23:16:16.809Z,89.64
2023-03-13T23:18:47.691Z,90.23
2023-03-13T23:21:18.437Z,89.15
2023-03-13T23:23:47.739Z,90.03
2023-03-13T23:26:20.840Z,89.69
2023-03-13T23:28:53.408Z,90.69
2023-03-13T23:31:23.119Z,90.28
2023-03-13T23:33:52.793Z,91.34
2023-03-13T23:36:22.385Z,90.85
2023-03-13T23:38:51.681Z,91.46
2023-03-13T23:44:44.471Z,91.48
2023-03-13T23:47:17.065Z,90.91
2023-03-13T23:49:45.550Z,90.87
2023-03-13T23:52:15.048Z,90.70
2023-03-13T23:54:43.396Z,90.63
2023-03-13T23:57:14.006Z,90.69
2023-03-13T23:59:44.415Z,90.02
